createdAt,value
2023-08-29T00:00:07.260Z,14.25
2023-08-29T00:03:17.159Z,13.38
2023-08-29T00:06:19.993Z,12.30
2023-08-29T00:09:23.360Z,10.17
2023-08-29T00:12:26.819Z,12.93
2023-08-29T00:15:29.648Z,13.40
2023-08-29T00:18:33.265Z,16.55
2023-08-29T00:21:36.776Z,11.77
2023-08-29T00:24:39.588Z,15.63
2023-08-29T00:27:43.258Z,13.20
2023-08-29T00:30:46.777Z,15.38
2023-08-29T00:33:49.453Z,12.02
2023-08-29T00:36:53.167Z,13.73
2023-08-29T00:39:56.094Z,12.77
2023-08-29T00:43:04.094Z,11.97
2023-08-29T00:46:08.345Z,12.00
2023-08-29T00:49:14.664Z,10.50
2023-08-29T00:52:17.461Z,13.50
2023-08-29T00:55:20.196Z,10.87
2023-08-29T00:58:23.153Z,12.57
2023-08-29T01:01:26.796Z,11.25
2023-08-29T01:04:32.679Z,11.00
2023-08-29T01:07:36.412Z,12.02
2023-08-29T01:11:30.506Z,12.17
2023-08-29T01:14:43.896Z,10.53
2023-08-29T01:17:50.577Z,12.27
2023-08-29T01:21:01.482Z,14.35
2023-08-29T01:24:23.177Z,15.48
2023-08-29T01:27:26.835Z,13.37
2023-08-29T01:30:30.562Z,12.40
2023-08-29T01:33:34.153Z,14.57
2023-08-29T01:36:41.744Z,11.68
2023-08-29T01:39:44.511Z,12.43
2023-08-29T01:42:47.915Z,12.97
2023-08-29T01:45:50.860Z,14.10
2023-08-29T01:48:54.613Z,11.55
2023-08-29T01:51:57.901Z,11.85
2023-08-29T01:55:01.501Z,14.68
2023-08-29T01:58:06.805Z,10.97
2023-08-29T02:01:22.972Z,9.80
2023-08-29T02:04:27.452Z,11.55
2023-08-29T02:07:30.159Z,10.73
2023-08-29T02:10:37.208Z,12.30
2023-08-29T02:13:40.882Z,11.30
2023-08-29T02:16:43.868Z,10.60
2023-08-29T02:19:50.610Z,11.57
2023-08-29T02:22:54.001Z,10.50
2023-08-29T02:26:06.971Z,14.05
2023-08-29T02:29:10.415Z,12.20
2023-08-29T02:32:13.061Z,12.73
2023-08-29T02:35:15.805Z,12.73
2023-08-29T02:38:18.557Z,12.38
2023-08-29T02:41:21.955Z,13.23
2023-08-29T02:44:24.600Z,10.70
2023-08-29T02:47:28.003Z,12.37
2023-08-29T02:50:30.833Z,12.25
2023-08-29T02:53:33.606Z,11.18
2023-08-29T02:56:36.320Z,9.48
2023-08-29T02:59:41.428Z,11.38
2023-08-29T03:02:45.153Z,10.43
2023-08-29T03:05:58.586Z,11.93
2023-08-29T03:09:02.484Z,11.52
2023-08-29T03:12:05.512Z,11.45
2023-08-29T03:15:09.006Z,13.70
2023-08-29T03:18:12.021Z,11.90
2023-08-29T03:21:15.568Z,10.70
2023-08-29T03:24:18.666Z,10.30
2023-08-29T03:27:22.312Z,11.82
2023-08-29T03:30:28.172Z,10.57
2023-08-29T03:33:31.993Z,12.43
2023-08-29T03:36:34.784Z,11.43
2023-08-29T03:39:38.195Z,19.13
2023-08-29T03:42:42.564Z,10.82
2023-08-29T03:45:46.061Z,12.87
2023-08-29T03:48:49.560Z,11.60
2023-08-29T03:51:53.104Z,12.70
2023-08-29T03:54:57.056Z,11.13
2023-08-29T03:57:59.836Z,11.20
2023-08-29T04:01:05.067Z,11.70
2023-08-29T04:04:08.331Z,15.83
2023-08-29T04:07:12.482Z,13.55
2023-08-29T04:10:15.271Z,15.02
2023-08-29T04:13:18.673Z,13.73
2023-08-29T04:16:24.943Z,12.50
2023-08-29T04:19:28.240Z,17.57
2023-08-29T04:22:31.009Z,12.30
2023-08-29T04:25:37.642Z,13.88
2023-08-29T04:28:41.064Z,12.07
2023-08-29T04:31:45.025Z,12.83
2023-08-29T04:34:48.647Z,13.67
2023-08-29T04:37:51.499Z,12.82
2023-08-29T04:40:55.186Z,12.60
2023-08-29T04:43:58.587Z,14.43
2023-08-29T04:47:02.228Z,14.20
2023-08-29T04:50:06.369Z,17.03
2023-08-29T04:53:09.067Z,12.63
2023-08-29T04:56:12.302Z,16.23
2023-08-29T04:59:15.056Z,10.75
2023-08-29T05:02:18.649Z,14.40
2023-08-29T05:05:22.522Z,13.53
2023-08-29T05:08:26.256Z,13.27
2023-08-29T05:11:29.743Z,10.20
2023-08-29T05:14:32.735Z,12.65
2023-08-29T05:17:36.211Z,11.17
2023-08-29T05:20:40.163Z,11.20
2023-08-29T05:23:42.804Z,11.70
2023-08-29T05:26:46.812Z,11.60
2023-08-29T05:29:50.360Z,16.75
2023-08-29T05:32:55.776Z,10.37
2023-08-29T05:35:58.779Z,15.30
2023-08-29T05:39:01.737Z,13.18
2023-08-29T05:42:04.935Z,11.85
2023-08-29T05:45:08.145Z,15.48
2023-08-29T05:48:11.137Z,15.60
2023-08-29T05:51:14.028Z,16.47
2023-08-29T05:54:16.860Z,15.70
2023-08-29T05:57:19.734Z,12.48
2023-08-29T06:00:22.705Z,15.52
2023-08-29T06:03:26.589Z,10.10
2023-08-29T06:06:30.165Z,10.10
2023-08-29T06:09:34.566Z,15.13
2023-08-29T06:12:37.275Z,13.75
2023-08-29T06:15:40.745Z,13.93
2023-08-29T06:18:44.742Z,13.32
2023-08-29T06:21:48.205Z,16.20
2023-08-29T06:24:51.848Z,11.30
2023-08-29T06:27:55.254Z,13.82
2023-08-29T06:30:58.006Z,18.92
2023-08-29T06:34:01.395Z,20.15
2023-08-29T06:37:04.407Z,16.07
2023-08-29T06:40:11.329Z,16.20
2023-08-29T06:43:14.081Z,16.27
2023-08-29T06:46:18.085Z,15.73
2023-08-29T06:49:20.798Z,19.00
2023-08-29T06:52:23.748Z,18.47
2023-08-29T06:55:28.361Z,17.65
2023-08-29T06:58:32.017Z,16.42
2023-08-29T07:01:35.509Z,27.27
2023-08-29T07:04:39.373Z,14.03
2023-08-29T07:07:42.129Z,17.33
2023-08-29T07:10:44.860Z,11.10
2023-08-29T07:13:51.111Z,19.27
2023-08-29T07:17:09.475Z,15.93
2023-08-29T07:20:13.551Z,13.63
2023-08-29T07:23:17.529Z,14.57
2023-08-29T07:26:20.414Z,16.40
2023-08-29T07:29:24.497Z,16.85
2023-08-29T07:32:27.736Z,16.58
2023-08-29T07:35:41.469Z,15.87
2023-08-29T07:38:49.532Z,13.77
2023-08-29T07:41:56.638Z,16.63
2023-08-29T07:44:59.536Z,14.85
2023-08-29T07:48:04.097Z,12.27
2023-08-29T07:51:08.147Z,16.63
2023-08-29T07:54:12.334Z,16.00
2023-08-29T07:57:15.663Z,15.02
2023-08-29T08:00:30.601Z,14.57
2023-08-29T08:03:34.278Z,15.68
2023-08-29T08:06:38.382Z,16.07
2023-08-29T08:09:43.331Z,17.13
2023-08-29T08:12:50.698Z,13.23
2023-08-29T08:15:53.625Z,15.30
2023-08-29T08:18:56.475Z,15.05
2023-08-29T08:22:00.211Z,14.18
2023-08-29T08:25:05.475Z,15.73
2023-08-29T08:28:08.622Z,15.68
2023-08-29T08:31:11.860Z,14.23
2023-08-29T08:34:14.673Z,16.58
2023-08-29T08:37:18.032Z,17.57
2023-08-29T08:40:22.349Z,18.03
2023-08-29T08:43:26.664Z,25.60
2023-08-29T08:46:39.770Z,16.27
2023-08-29T08:49:56.356Z,23.63
2023-08-29T08:53:05.388Z,20.53
2023-08-29T08:56:09.638Z,17.53
2023-08-29T08:59:12.423Z,17.13
2023-08-29T09:02:20.589Z,18.48
2023-08-29T09:05:26.205Z,15.73
2023-08-29T09:08:35.376Z,20.63
2023-08-29T09:11:43.256Z,18.50
2023-08-29T09:14:47.027Z,18.88
2023-08-29T09:17:52.599Z,17.00
2023-08-29T09:20:59.655Z,18.88
2023-08-29T09:24:02.526Z,14.53
2023-08-29T09:27:11.047Z,15.53
2023-08-29T09:30:18.673Z,15.27
2023-08-29T09:33:25.730Z,16.60
2023-08-29T09:36:29.452Z,17.60
2023-08-29T09:39:32.482Z,14.73
2023-08-29T09:42:35.465Z,14.87
2023-08-29T09:45:39.297Z,13.50
2023-08-29T09:48:58.193Z,16.05
2023-08-29T09:52:02.598Z,18.00
2023-08-29T09:55:09.824Z,39.07
2023-08-29T09:58:16.236Z,16.23
2023-08-29T10:01:20.542Z,15.50
2023-08-29T10:04:27.836Z,13.93
2023-08-29T10:07:40.020Z,13.18
2023-08-29T10:10:46.469Z,11.60
2023-08-29T10:13:50.143Z,11.47
2023-08-29T10:16:55.385Z,14.82
2023-08-29T10:20:03.421Z,13.45
2023-08-29T10:23:08.604Z,12.73
2023-08-29T10:26:11.700Z,13.03
2023-08-29T10:29:14.704Z,14.63
2023-08-29T10:32:18.936Z,14.20
2023-08-29T10:35:27.309Z,17.60
2023-08-29T10:38:31.887Z,17.65
2023-08-29T10:41:50.115Z,18.37
2023-08-29T10:44:55.020Z,15.00
2023-08-29T10:47:58.654Z,15.00
2023-08-29T10:51:20.644Z,13.80
2023-08-29T10:54:30.926Z,13.85
2023-08-29T10:57:34.309Z,12.73
2023-08-29T11:00:43.890Z,13.80
2023-08-29T11:03:50.036Z,14.48
2023-08-29T11:07:04.041Z,15.70
2023-08-29T11:10:42.767Z,13.38
2023-08-29T11:14:05.308Z,14.20
2023-08-29T11:17:13.227Z,13.87
2023-08-29T11:20:18.483Z,13.02
2023-08-29T11:23:23.351Z,13.00
2023-08-29T11:26:28.181Z,17.15
2023-08-29T11:29:39.019Z,14.57
2023-08-29T11:32:42.064Z,16.93
2023-08-29T11:35:44.811Z,13.07
2023-08-29T11:38:49.469Z,17.55
2023-08-29T11:41:59.000Z,13.63
2023-08-29T11:45:47.479Z,11.40
2023-08-29T11:49:17.270Z,13.27
2023-08-29T11:52:20.304Z,9.10
2023-08-29T11:55:26.804Z,10.90
2023-08-29T11:58:31.099Z,13.43
2023-08-29T12:01:40.166Z,12.07
2023-08-29T12:04:49.133Z,10.10
2023-08-29T12:07:54.752Z,11.80
2023-08-29T12:10:57.530Z,11.70
2023-08-29T12:14:08.670Z,13.00
2023-08-29T12:17:55.818Z,12.07
2023-08-29T12:21:12.863Z,11.93
2023-08-29T12:24:15.658Z,12.68
2023-08-29T12:27:18.330Z,14.27
2023-08-29T12:30:21.661Z,12.20
2023-08-29T12:33:25.248Z,13.30
2023-08-29T12:36:28.940Z,13.27
2023-08-29T12:39:32.847Z,10.60
2023-08-29T12:42:37.202Z,10.45
2023-08-29T12:45:52.854Z,13.57
2023-08-29T12:48:59.952Z,8.77
2023-08-29T12:52:03.415Z,10.23
2023-08-29T12:55:06.396Z,7.85
2023-08-29T12:58:09.441Z,8.55
2023-08-29T13:01:14.900Z,8.15
2023-08-29T13:04:22.970Z,7.45
2023-08-29T13:07:25.644Z,7.70
2023-08-29T13:10:30.108Z,8.50
2023-08-29T13:13:33.001Z,8.23
2023-08-29T13:16:36.906Z,9.73
2023-08-29T13:19:41.150Z,9.15
2023-08-29T13:22:50.580Z,7.40
2023-08-29T13:25:53.429Z,9.20
2023-08-29T13:28:57.596Z,9.52
2023-08-29T13:32:00.496Z,7.47
2023-08-29T13:35:04.959Z,6.82
2023-08-29T13:38:08.804Z,14.03
2023-08-29T13:41:11.788Z,9.23
2023-08-29T13:44:14.556Z,7.53
2023-08-29T13:47:17.414Z,10.35
2023-08-29T13:50:20.470Z,8.52
2023-08-29T13:53:25.835Z,10.97
2023-08-29T13:56:29.529Z,6.15
2023-08-29T13:59:32.668Z,7.25
2023-08-29T14:02:35.584Z,7.57
2023-08-29T14:05:38.364Z,7.38
2023-08-29T14:08:41.897Z,7.00
2023-08-29T14:11:44.613Z,11.32
2023-08-29T14:14:47.310Z,7.43
2023-08-29T14:17:52.313Z,6.18
2023-08-29T14:20:55.058Z,12.27
2023-08-29T14:23:58.395Z,6.17
2023-08-29T14:27:01.145Z,7.85
2023-08-29T14:30:04.309Z,7.47
2023-08-29T14:33:07.978Z,6.70
2023-08-29T14:36:10.704Z,6.30
2023-08-29T14:39:13.775Z,11.37
2023-08-29T14:42:17.566Z,6.25
2023-08-29T14:45:20.948Z,6.40
2023-08-29T14:48:24.002Z,9.85
2023-08-29T14:51:27.297Z,6.37
2023-08-29T14:54:30.016Z,13.70
2023-08-29T14:57:33.094Z,9.30
2023-08-29T15:00:42.385Z,9.30
2023-08-29T15:03:46.044Z,7.13
2023-08-29T15:06:49.479Z,7.88
2023-08-29T15:09:52.931Z,7.73
2023-08-29T15:12:55.719Z,10.63
2023-08-29T15:16:05.949Z,8.02
2023-08-29T15:19:08.627Z,9.73
2023-08-29T15:22:11.356Z,8.38
2023-08-29T15:25:14.077Z,9.93
2023-08-29T15:28:32.752Z,9.10
2023-08-29T15:31:37.643Z,8.48
2023-08-29T15:34:40.515Z,9.27
2023-08-29T15:37:43.295Z,8.48
2023-08-29T15:40:50.811Z,8.23
2023-08-29T15:43:54.164Z,9.15
2023-08-29T15:46:57.548Z,10.95
2023-08-29T15:50:00.398Z,8.18
2023-08-29T15:53:03.818Z,11.75
2023-08-29T15:56:06.587Z,10.10
2023-08-29T15:59:09.351Z,12.93
2023-08-29T16:02:13.132Z,9.80
2023-08-29T16:05:16.562Z,11.95
2023-08-29T16:08:19.790Z,9.63
2023-08-29T16:11:22.876Z,11.80
2023-08-29T16:14:27.883Z,14.10
2023-08-29T16:17:34.315Z,10.23
2023-08-29T16:20:41.484Z,10.73
2023-08-29T16:23:46.745Z,10.77
2023-08-29T16:26:49.551Z,9.57
2023-08-29T16:29:56.097Z,14.10
2023-08-29T16:32:58.786Z,9.43
2023-08-29T16:36:02.115Z,9.15
2023-08-29T16:39:06.217Z,10.55
2023-08-29T16:42:09.073Z,10.60
2023-08-29T16:45:11.850Z,12.13
2023-08-29T16:48:14.794Z,9.23
2023-08-29T16:51:18.960Z,12.55
2023-08-29T16:54:25.928Z,12.60
2023-08-29T16:57:28.646Z,9.07
2023-08-29T17:00:32.480Z,13.70
2023-08-29T17:03:36.263Z,11.07
2023-08-29T17:06:39.697Z,11.85
2023-08-29T17:09:44.905Z,8.50
2023-08-29T17:12:48.728Z,10.63
2023-08-29T17:15:51.463Z,13.73
2023-08-29T17:18:56.652Z,9.98
2023-08-29T17:22:00.819Z,9.57
2023-08-29T17:25:04.164Z,11.02
2023-08-29T17:28:07.594Z,11.20
2023-08-29T17:31:11.794Z,20.55
2023-08-29T17:34:14.861Z,12.68
2023-08-29T17:37:18.770Z,10.23
2023-08-29T17:40:22.819Z,12.27
2023-08-29T17:43:26.654Z,11.43
2023-08-29T17:46:30.001Z,16.30
2023-08-29T17:49:33.244Z,11.70
2023-08-29T17:52:36.747Z,12.93
2023-08-29T17:55:40.260Z,9.27
2023-08-29T17:58:43.745Z,11.93
2023-08-29T18:01:47.375Z,9.82
2023-08-29T18:04:51.313Z,10.75
2023-08-29T18:07:54.742Z,12.40
2023-08-29T18:10:57.417Z,11.93
2023-08-29T18:14:00.360Z,13.10
2023-08-29T18:17:03.943Z,12.15
2023-08-29T18:20:07.408Z,11.55
2023-08-29T18:23:10.595Z,11.77
2023-08-29T18:26:14.450Z,9.23
2023-08-29T18:29:17.525Z,10.90
2023-08-29T18:32:20.328Z,11.65
2023-08-29T18:35:23.848Z,14.38
2023-08-29T18:38:26.616Z,11.70
2023-08-29T18:41:29.422Z,12.68
2023-08-29T18:44:32.518Z,12.77
2023-08-29T18:47:35.329Z,10.32
2023-08-29T18:50:40.333Z,11.77
2023-08-29T18:53:43.818Z,10.27
2023-08-29T18:56:50.852Z,10.13
2023-08-29T18:59:54.301Z,15.63
2023-08-29T19:02:58.305Z,12.90
2023-08-29T19:06:01.210Z,11.88
2023-08-29T19:09:04.960Z,8.45
2023-08-29T19:12:08.300Z,16.90
2023-08-29T19:15:11.757Z,10.10
2023-08-29T19:18:15.538Z,9.80
2023-08-29T19:21:19.230Z,12.73
2023-08-29T19:24:22.819Z,10.18
2023-08-29T19:27:28.813Z,11.93
2023-08-29T19:30:31.984Z,9.87
2023-08-29T19:33:34.882Z,9.50
2023-08-29T19:36:37.654Z,9.25
2023-08-29T19:39:43.509Z,8.68
2023-08-29T19:42:46.636Z,7.00
2023-08-29T19:45:50.358Z,3.80
2023-08-29T19:48:53.382Z,5.18
2023-08-29T19:51:57.012Z,3.33
2023-08-29T19:55:00.933Z,3.25
2023-08-29T19:58:03.940Z,4.50
2023-08-29T20:01:07.476Z,4.33
2023-08-29T20:04:10.579Z,3.88
2023-08-29T20:07:13.937Z,3.67
2023-08-29T20:10:17.480Z,2.30
2023-08-29T20:13:20.263Z,1.83
2023-08-29T20:16:23.101Z,2.60
2023-08-29T20:19:26.320Z,1.80
2023-08-29T20:22:29.076Z,1.95
2023-08-29T20:25:33.098Z,1.77
2023-08-29T20:28:36.802Z,5.43
2023-08-29T20:31:40.421Z,3.53
2023-08-29T20:34:43.144Z,4.78
2023-08-29T20:37:46.598Z,2.80
2023-08-29T20:40:50.355Z,3.97
2023-08-29T20:43:53.191Z,3.20
2023-08-29T20:46:56.385Z,3.00
2023-08-29T20:49:59.927Z,2.40
2023-08-29T20:53:02.854Z,3.15
2023-08-29T20:56:06.180Z,3.50
2023-08-29T20:59:09.392Z,2.47
2023-08-29T21:02:12.983Z,2.87
2023-08-29T21:05:15.846Z,2.08
2023-08-29T21:08:19.612Z,1.05
2023-08-29T21:11:22.485Z,1.58
2023-08-29T21:14:25.918Z,1.40
2023-08-29T21:17:30.162Z,1.20
2023-08-29T21:20:38.675Z,1.85
2023-08-29T21:23:42.127Z,1.50
2023-08-29T21:26:44.759Z,2.53
2023-08-29T21:29:50.526Z,1.10
2023-08-29T21:32:53.579Z,1.40
2023-08-29T21:35:56.442Z,1.58
2023-08-29T21:38:59.435Z,1.30
2023-08-29T21:42:02.163Z,2.95
2023-08-29T21:45:05.205Z,1.77
2023-08-29T21:48:10.683Z,1.90
2023-08-29T21:51:17.244Z,3.08
2023-08-29T21:54:20.561Z,1.25
2023-08-29T21:57:24.252Z,1.65
2023-08-29T22:00:27.248Z,3.20
2023-08-29T22:03:30.507Z,2.27
2023-08-29T22:06:36.475Z,1.00
2023-08-29T22:09:40.619Z,1.42
2023-08-29T22:12:43.946Z,2.80
2023-08-29T22:15:49.937Z,2.90
2023-08-29T22:18:53.604Z,0.97
2023-08-29T22:21:56.235Z,3.05
2023-08-29T22:24:58.944Z,1.15
2023-08-29T22:28:01.750Z,0.95
2023-08-29T22:31:05.110Z,2.40
2023-08-29T22:34:07.741Z,1.80
2023-08-29T22:37:11.352Z,3.15
2023-08-29T22:40:14.111Z,3.60
2023-08-29T22:43:17.729Z,5.57
2023-08-29T22:46:21.299Z,2.23
2023-08-29T22:49:24.572Z,2.23
2023-08-29T22:52:27.371Z,1.40
2023-08-29T22:55:31.194Z,2.70
2023-08-29T22:58:34.145Z,1.83
2023-08-29T23:01:38.169Z,2.40
2023-08-29T23:04:40.916Z,2.40
2023-08-29T23:07:44.109Z,2.47
2023-08-29T23:10:46.711Z,2.67
2023-08-29T23:13:50.291Z,4.90
2023-08-29T23:16:53.337Z,3.37
2023-08-29T23:19:56.650Z,3.13
2023-08-29T23:22:59.409Z,2.72
2023-08-29T23:26:02.557Z,2.50
2023-08-29T23:29:05.826Z,2.97
2023-08-29T23:32:08.858Z,2.93
2023-08-29T23:35:13.435Z,3.77
2023-08-29T23:38:17.407Z,4.05
2023-08-29T23:41:20.787Z,2.92
2023-08-29T23:44:23.910Z,3.42
2023-08-29T23:47:26.700Z,3.27
2023-08-29T23:50:30.209Z,3.07
2023-08-29T23:53:33.738Z,5.63
2023-08-29T23:56:36.446Z,4.63
2023-08-29T23:59:39.659Z,6.35
